createdAt,value
2018-07-28T00:00:45.835Z,21.80
2018-07-28T00:03:15.866Z,21.70
2018-07-28T00:05:45.838Z,21.70
2018-07-28T00:08:15.922Z,21.70
2018-07-28T00:10:46.162Z,21.70
2018-07-28T00:13:16.266Z,21.70
2018-07-28T00:15:46.347Z,21.70
2018-07-28T00:18:16.325Z,21.70
2018-07-28T00:20:46.382Z,21.70
2018-07-28T00:23:16.370Z,21.70
2018-07-28T00:25:51.655Z,21.60
2018-07-28T00:28:21.675Z,21.60
2018-07-28T00:33:21.400Z,21.60
2018-07-28T00:35:51.469Z,21.60
2018-07-28T00:38:21.497Z,21.50
2018-07-28T00:40:51.528Z,21.40
2018-07-28T00:43:21.555Z,21.30
2018-07-28T00:45:51.545Z,21.30
2018-07-28T00:48:21.618Z,21.20
2018-07-28T00:53:21.244Z,21.20
2018-07-28T00:55:51.376Z,21.20
2018-07-28T00:58:21.398Z,21.30
2018-07-28T01:03:21.125Z,21.20
2018-07-28T01:05:51.144Z,21.20
2018-07-28T01:08:21.123Z,21.20
2018-07-28T01:10:51.161Z,21.10
2018-07-28T01:13:21.158Z,21.20
2018-07-28T01:18:20.910Z,21.20
2018-07-28T01:20:51.084Z,21.20
2018-07-28T01:25:50.796Z,21.20
2018-07-28T01:28:20.830Z,21.10
2018-07-28T01:30:50.796Z,21.10
2018-07-28T01:33:20.769Z,21.10
2018-07-28T01:35:50.814Z,21.10
2018-07-28T01:38:20.839Z,21.10
2018-07-28T01:40:50.884Z,21.00
2018-07-28T01:43:20.900Z,21.00
2018-07-28T01:45:50.941Z,21.00
2018-07-28T01:48:20.909Z,21.00
2018-07-28T01:50:50.942Z,21.00
2018-07-28T01:53:20.990Z,21.00
2018-07-28T01:55:51.058Z,20.90
2018-07-28T01:58:21.076Z,20.90
2018-07-28T02:00:51.194Z,20.90
2018-07-28T02:05:50.962Z,20.90
2018-07-28T02:08:21.084Z,20.80
2018-07-28T02:10:51.194Z,20.80
2018-07-28T02:13:21.284Z,20.80
2018-07-28T02:15:51.270Z,20.70
2018-07-28T02:18:21.367Z,20.70
2018-07-28T02:20:51.360Z,20.70
2018-07-28T02:25:50.992Z,20.70
2018-07-28T02:28:21.089Z,20.70
2018-07-28T02:30:51.122Z,20.60
2018-07-28T02:33:21.202Z,20.60
2018-07-28T02:35:51.190Z,20.60
2018-07-28T02:38:21.360Z,20.60
2018-07-28T02:40:51.381Z,20.60
2018-07-28T02:43:21.366Z,20.60
2018-07-28T02:45:51.343Z,20.60
2018-07-28T02:48:21.334Z,20.60
2018-07-28T02:50:51.330Z,20.60
2018-07-28T02:53:21.334Z,20.60
2018-07-28T02:55:51.409Z,20.60
2018-07-28T02:58:21.508Z,20.60
2018-07-28T03:03:21.490Z,20.50
2018-07-28T03:08:21.196Z,20.50
2018-07-28T03:10:51.201Z,20.40
2018-07-28T03:13:21.309Z,20.40
2018-07-28T03:15:51.393Z,20.40
2018-07-28T03:18:21.471Z,20.30
2018-07-28T03:20:51.531Z,20.20
2018-07-28T03:23:21.593Z,20.30
2018-07-28T03:25:51.641Z,20.20
2018-07-28T03:28:21.698Z,20.20
2018-07-28T03:30:51.702Z,20.20
2018-07-28T03:33:21.676Z,20.20
2018-07-28T03:35:51.697Z,20.20
2018-07-28T03:38:21.719Z,20.20
2018-07-28T03:40:51.783Z,20.30
2018-07-28T03:43:21.769Z,20.30
2018-07-28T03:45:51.895Z,20.30
2018-07-28T03:48:21.958Z,20.30
2018-07-28T03:50:52.028Z,20.30
2018-07-28T03:53:22.132Z,20.30
2018-07-28T03:55:52.183Z,20.30
2018-07-28T03:58:22.206Z,20.30
2018-07-28T04:00:52.306Z,20.40
2018-07-28T04:03:22.301Z,20.40
2018-07-28T04:05:52.398Z,20.40
2018-07-28T04:08:22.473Z,20.50
2018-07-28T04:10:52.575Z,20.50
2018-07-28T04:13:22.615Z,20.50
2018-07-28T04:15:52.714Z,20.60
2018-07-28T04:18:22.806Z,20.60
2018-07-28T04:20:52.808Z,20.60
2018-07-28T04:23:22.830Z,20.60
2018-07-28T04:28:22.597Z,20.70
2018-07-28T04:30:52.644Z,20.70
2018-07-28T04:33:22.648Z,20.80
2018-07-28T04:35:53.455Z,20.80
2018-07-28T04:38:23.477Z,20.90
2018-07-28T04:40:53.529Z,20.90
2018-07-28T04:43:23.549Z,21.00
2018-07-28T04:45:53.509Z,21.00
2018-07-28T04:48:23.569Z,21.00
2018-07-28T04:50:53.554Z,21.00
2018-07-28T04:53:23.588Z,21.10
2018-07-28T04:55:53.544Z,21.10
2018-07-28T04:58:23.658Z,21.10
2018-07-28T05:00:53.723Z,21.20
2018-07-28T05:03:23.717Z,21.20
2018-07-28T05:05:53.722Z,21.30
2018-07-28T05:08:23.801Z,21.30
2018-07-28T05:10:53.877Z,21.40
2018-07-28T05:13:23.889Z,21.40
2018-07-28T05:15:54.004Z,21.50
2018-07-28T05:18:23.968Z,21.60
2018-07-28T05:20:54.302Z,21.60
2018-07-28T05:23:24.335Z,21.70
2018-07-28T05:25:54.304Z,21.80
2018-07-28T05:28:24.486Z,21.80
2018-07-28T05:30:54.567Z,21.90
2018-07-28T05:33:24.548Z,22.00
2018-07-28T05:35:54.830Z,22.00
2018-07-28T05:38:24.844Z,22.10
2018-07-28T05:40:54.911Z,22.20
2018-07-28T05:43:24.897Z,22.20
2018-07-28T05:45:54.917Z,22.20
2018-07-28T05:48:24.994Z,22.30
2018-07-28T05:50:55.009Z,22.40
2018-07-28T05:58:24.344Z,22.60
2018-07-28T06:00:54.298Z,22.70
2018-07-28T06:03:24.435Z,22.70
2018-07-28T06:05:55.359Z,22.80
2018-07-28T06:08:25.430Z,22.90
2018-07-28T06:10:55.407Z,22.90
2018-07-28T06:13:25.519Z,23.00
2018-07-28T06:20:54.897Z,23.30
2018-07-28T06:23:24.942Z,23.40
2018-07-28T06:25:55.008Z,23.50
2018-07-28T06:28:25.021Z,23.50
2018-07-28T06:30:55.015Z,23.60
2018-07-28T06:33:25.013Z,23.80
2018-07-28T06:35:55.056Z,23.90
2018-07-28T06:38:25.083Z,24.00
2018-07-28T06:40:55.032Z,24.10
2018-07-28T06:43:25.030Z,24.20
2018-07-28T06:45:55.048Z,24.30
2018-07-28T06:48:25.216Z,24.40
2018-07-28T06:50:55.257Z,24.50
2018-07-28T06:53:25.238Z,24.50
2018-07-28T06:55:55.255Z,24.60
2018-07-28T06:58:25.676Z,24.70
2018-07-28T07:00:55.697Z,24.80
2018-07-28T07:03:25.673Z,24.90
2018-07-28T07:05:55.891Z,25.00
2018-07-28T07:08:25.899Z,25.10
2018-07-28T07:13:25.694Z,25.30
2018-07-28T07:18:26.521Z,25.60
2018-07-28T07:20:56.523Z,25.70
2018-07-28T07:23:26.464Z,25.70
2018-07-28T07:25:56.841Z,25.80
2018-07-28T07:30:57.266Z,26.00
2018-07-28T07:33:27.262Z,26.10
2018-07-28T07:35:57.258Z,26.30
2018-07-28T07:38:27.347Z,26.40
2018-07-28T07:40:57.403Z,26.50
2018-07-28T07:43:27.394Z,26.50
2018-07-28T07:45:57.385Z,26.60
2018-07-28T07:48:27.451Z,26.70
2018-07-28T07:53:27.194Z,26.80
2018-07-28T07:55:57.189Z,26.90
2018-07-28T07:58:27.271Z,27.00
2018-07-28T08:00:57.282Z,27.00
2018-07-28T08:03:27.318Z,27.10
2018-07-28T08:05:57.421Z,27.20
2018-07-28T08:08:27.452Z,27.20
2018-07-28T08:10:57.822Z,27.30
2018-07-28T08:13:27.813Z,27.40
2018-07-28T08:15:58.533Z,27.50
2018-07-28T08:18:28.574Z,27.50
2018-07-28T08:20:58.692Z,27.50
2018-07-28T08:23:28.723Z,27.60
2018-07-28T08:25:58.898Z,27.70
2018-07-28T08:28:29.012Z,27.80
2018-07-28T08:30:59.050Z,27.80
2018-07-28T08:35:58.738Z,27.90
2018-07-28T08:38:29.121Z,28.00
2018-07-28T08:40:59.146Z,28.00
2018-07-28T08:43:29.198Z,28.10
2018-07-28T08:45:59.192Z,28.10
2018-07-28T08:48:29.201Z,28.20
2018-07-28T08:50:59.222Z,28.20
2018-07-28T08:53:29.223Z,28.20
2018-07-28T08:55:59.233Z,28.30
2018-07-28T08:58:29.188Z,28.50
2018-07-28T09:00:59.202Z,28.50
2018-07-28T09:03:29.178Z,28.50
2018-07-28T09:05:59.243Z,28.60
2018-07-28T09:08:29.241Z,28.70
2018-07-28T09:10:59.414Z,28.80
2018-07-28T09:13:29.425Z,29.10
2018-07-28T09:15:59.446Z,29.30
2018-07-28T09:20:59.076Z,29.60
2018-07-28T09:23:29.250Z,29.70
2018-07-28T09:25:59.357Z,29.90
2018-07-28T09:28:29.341Z,29.80
2018-07-28T09:30:59.355Z,29.70
2018-07-28T09:33:29.505Z,29.80
2018-07-28T09:35:59.529Z,29.80
2018-07-28T09:38:29.624Z,29.90
2018-07-28T09:40:59.653Z,30.00
2018-07-28T09:43:29.776Z,30.20
2018-07-28T09:45:59.822Z,30.30
2018-07-28T09:48:29.841Z,30.40
2018-07-28T09:50:59.922Z,30.50
2018-07-28T09:53:29.987Z,30.50
2018-07-28T09:56:00.079Z,30.40
2018-07-28T09:58:30.119Z,30.50
2018-07-28T10:03:34.930Z,30.80
2018-07-28T10:06:05.102Z,31.00
2018-07-28T10:08:35.074Z,31.10
2018-07-28T10:11:05.183Z,31.10
2018-07-28T10:13:35.186Z,31.10
2018-07-28T10:16:05.210Z,31.00
2018-07-28T10:18:35.454Z,31.00
2018-07-28T10:21:06.638Z,30.90
2018-07-28T10:23:36.689Z,30.90
2018-07-28T10:26:07.081Z,31.00
2018-07-28T10:31:06.939Z,30.70
2018-07-28T10:33:37.002Z,30.50
2018-07-28T10:36:07.544Z,30.60
2018-07-28T10:38:37.540Z,30.60
2018-07-28T10:41:07.530Z,30.80
2018-07-28T10:43:37.654Z,31.10
2018-07-28T10:46:07.672Z,31.10
2018-07-28T10:48:37.706Z,31.00
2018-07-28T10:51:07.981Z,31.00
2018-07-28T10:53:38.156Z,30.80
2018-07-28T10:56:08.151Z,30.70
2018-07-28T10:58:38.218Z,30.80
2018-07-28T11:01:08.366Z,30.80
2018-07-28T11:03:38.332Z,30.70
2018-07-28T11:06:08.562Z,30.70
2018-07-28T11:08:38.558Z,31.00
2018-07-28T11:11:08.541Z,31.20
2018-07-28T11:13:38.708Z,31.50
2018-07-28T11:16:08.689Z,31.70
2018-07-28T11:18:38.715Z,32.00
2018-07-28T11:21:08.725Z,32.20
2018-07-28T11:24:00.037Z,32.40
2018-07-28T11:26:30.014Z,32.50
2018-07-28T11:29:00.969Z,32.50
2018-07-28T11:31:48.262Z,32.60
2018-07-28T11:38:17.049Z,32.90
2018-07-28T11:41:04.264Z,33.00
2018-07-28T11:43:51.388Z,33.10
2018-07-28T11:48:52.118Z,33.20
2018-07-28T11:51:22.131Z,32.90
2018-07-28T11:53:52.122Z,32.90
2018-07-28T11:56:22.242Z,33.00
2018-07-28T11:58:52.286Z,33.40
2018-07-28T12:03:51.959Z,33.60
2018-07-28T12:08:51.701Z,33.50
2018-07-28T12:11:21.715Z,33.60
2018-07-28T12:13:51.947Z,33.60
2018-07-28T12:16:21.962Z,33.80
2018-07-28T12:18:52.111Z,34.20
2018-07-28T12:21:22.042Z,34.40
2018-07-28T12:23:52.122Z,34.10
2018-07-28T12:26:22.097Z,34.00
2018-07-28T12:28:52.094Z,34.00
2018-07-28T12:31:22.331Z,34.20
2018-07-28T12:33:52.288Z,34.40
2018-07-28T12:36:22.245Z,34.10
2018-07-28T12:38:52.343Z,33.80
2018-07-28T12:41:22.325Z,33.50
2018-07-28T12:43:52.345Z,33.40
2018-07-28T12:46:22.295Z,33.40
2018-07-28T12:48:52.284Z,33.30
2018-07-28T12:51:22.309Z,33.40
2018-07-28T12:56:22.046Z,33.00
2018-07-28T13:01:22.535Z,33.00
2018-07-28T13:03:52.597Z,33.20
2018-07-28T13:06:31.898Z,33.20
2018-07-28T13:11:31.675Z,33.20
2018-07-28T13:14:01.777Z,33.10
2018-07-28T13:16:32.302Z,33.10
2018-07-28T13:21:32.154Z,32.50
2018-07-28T13:24:02.196Z,32.40
2018-07-28T13:26:32.198Z,32.30
2018-07-28T13:29:02.160Z,32.50
2018-07-28T13:31:32.189Z,32.80
2018-07-28T13:34:02.266Z,33.10
2018-07-28T13:36:32.294Z,33.30
2018-07-28T13:39:02.329Z,33.60
2018-07-28T13:41:32.340Z,33.60
2018-07-28T13:44:02.314Z,33.40
2018-07-28T13:46:32.288Z,33.20
2018-07-28T13:49:02.245Z,33.10
2018-07-28T13:51:32.184Z,33.30
2018-07-28T13:54:02.251Z,33.30
2018-07-28T13:56:32.255Z,33.40
2018-07-28T13:59:02.577Z,33.40
2018-07-28T14:01:32.672Z,33.40
2018-07-28T14:04:02.621Z,33.40
2018-07-28T14:06:32.583Z,33.40
2018-07-28T14:09:02.529Z,33.60
2018-07-28T14:11:32.495Z,33.70
2018-07-28T14:19:02.120Z,33.90
2018-07-28T14:21:32.138Z,34.10
2018-07-28T14:24:02.158Z,34.10
2018-07-28T14:26:32.136Z,34.30
2018-07-28T14:29:02.266Z,34.50
2018-07-28T14:31:32.271Z,34.60
2018-07-28T14:34:02.334Z,34.70
2018-07-28T14:36:32.282Z,34.80
2018-07-28T14:39:02.318Z,34.80
2018-07-28T14:41:32.310Z,34.70
2018-07-28T14:44:02.337Z,34.80
2018-07-28T14:46:32.465Z,34.70
2018-07-28T14:49:02.437Z,34.80
2018-07-28T14:51:32.522Z,34.80
2018-07-28T14:56:32.236Z,34.80
2018-07-28T14:59:02.223Z,34.70
2018-07-28T15:04:24.631Z,34.60
2018-07-28T15:06:54.715Z,34.60
2018-07-28T15:14:24.052Z,34.70
2018-07-28T15:16:54.156Z,34.80
2018-07-28T15:19:24.211Z,35.00
2018-07-28T15:21:54.330Z,35.00
2018-07-28T15:24:24.391Z,34.90
2018-07-28T15:26:54.440Z,34.80
2018-07-28T15:29:24.417Z,34.70
2018-07-28T15:36:53.952Z,34.30
2018-07-28T15:41:53.665Z,34.40
2018-07-28T15:44:23.709Z,34.50
2018-07-28T15:46:54.005Z,34.70
2018-07-28T15:49:24.051Z,34.70
2018-07-28T15:51:54.204Z,34.60
2018-07-28T15:54:24.173Z,34.50
2018-07-28T15:56:54.269Z,34.50
2018-07-28T15:59:24.251Z,34.30
2018-07-28T16:01:54.300Z,34.50
2018-07-28T16:06:53.989Z,34.50
2018-07-28T16:11:54.466Z,34.20
2018-07-28T16:14:24.480Z,34.30
2018-07-28T16:16:54.485Z,34.40
2018-07-28T16:19:24.676Z,34.30
2018-07-28T16:21:54.637Z,34.10
2018-07-28T16:24:24.706Z,34.10
2018-07-28T16:29:24.490Z,34.10
2018-07-28T16:34:27.013Z,33.90
2018-07-28T16:36:57.111Z,33.80
2018-07-28T16:39:27.061Z,33.60
2018-07-28T16:41:57.046Z,33.60
2018-07-28T16:44:26.983Z,33.30
2018-07-28T16:46:56.997Z,33.20
2018-07-28T16:49:26.992Z,32.90
2018-07-28T16:51:56.957Z,32.80
2018-07-28T16:54:27.038Z,32.70
2018-07-28T16:56:57.113Z,32.80
2018-07-28T16:59:27.138Z,32.80
2018-07-28T17:01:57.127Z,32.80
2018-07-28T17:04:27.234Z,32.90
2018-07-28T17:06:57.394Z,32.90
2018-07-28T17:09:27.424Z,32.80
2018-07-28T17:11:57.479Z,32.80
2018-07-28T17:14:27.551Z,32.80
2018-07-28T17:16:57.628Z,32.60
2018-07-28T17:19:27.637Z,32.50
2018-07-28T17:21:57.632Z,32.30
2018-07-28T17:24:27.618Z,32.10
2018-07-28T17:26:57.707Z,32.00
2018-07-28T17:29:27.731Z,31.70
2018-07-28T17:31:57.721Z,31.50
2018-07-28T17:34:27.749Z,31.30
2018-07-28T17:36:57.718Z,31.20
2018-07-28T17:39:27.666Z,31.10
2018-07-28T17:41:57.649Z,30.80
2018-07-28T17:44:27.725Z,30.20
2018-07-28T17:46:57.723Z,29.50
2018-07-28T17:49:27.793Z,29.10
2018-07-28T17:54:27.433Z,28.10
2018-07-28T17:56:57.407Z,27.90
2018-07-28T17:59:27.451Z,27.60
2018-07-28T18:04:27.119Z,27.00
2018-07-28T18:06:57.124Z,26.90
2018-07-28T18:09:27.124Z,26.80
2018-07-28T18:14:26.802Z,26.60
2018-07-28T18:16:56.770Z,26.30
2018-07-28T18:19:26.841Z,26.30
2018-07-28T18:21:56.894Z,26.30
2018-07-28T18:24:26.905Z,26.30
2018-07-28T18:26:56.905Z,26.20
2018-07-28T18:29:26.895Z,26.10
2018-07-28T18:31:57.042Z,26.00
2018-07-28T18:34:27.038Z,26.00
2018-07-28T18:36:57.020Z,25.90
2018-07-28T18:39:26.948Z,25.80
2018-07-28T18:44:26.511Z,25.80
2018-07-28T18:46:56.526Z,25.80
2018-07-28T18:49:26.485Z,25.80
2018-07-28T18:51:56.564Z,25.80
2018-07-28T18:54:26.563Z,25.80
2018-07-28T18:56:56.567Z,25.80
2018-07-28T18:59:26.565Z,25.80
2018-07-28T19:01:56.534Z,25.60
2018-07-28T19:04:27.340Z,25.60
2018-07-28T19:06:57.344Z,25.50
2018-07-28T19:09:32.804Z,25.50
2018-07-28T19:12:02.772Z,25.40
2018-07-28T19:19:37.955Z,24.80
2018-07-28T19:22:13.410Z,24.70
2018-07-28T19:24:43.900Z,24.70
2018-07-28T19:27:14.070Z,24.70
2018-07-28T19:29:45.121Z,24.70
2018-07-28T19:32:15.090Z,24.60
2018-07-28T19:34:45.549Z,24.60
2018-07-28T19:37:22.712Z,24.60
2018-07-28T19:41:22.230Z,24.60
2018-07-28T19:43:52.258Z,24.50
2018-07-28T19:46:22.291Z,24.60
2018-07-28T19:48:52.332Z,24.50
2018-07-28T19:51:22.353Z,24.40
2018-07-28T19:53:52.387Z,24.40
2018-07-28T19:56:22.473Z,24.50
2018-07-28T19:58:52.608Z,24.50
2018-07-28T20:01:22.743Z,24.40
2018-07-28T20:03:52.789Z,24.40
2018-07-28T20:06:22.831Z,24.50
2018-07-28T20:08:53.028Z,24.50
2018-07-28T20:11:23.051Z,24.50
2018-07-28T20:13:53.167Z,24.40
2018-07-28T20:16:23.174Z,24.40
2018-07-28T20:18:53.520Z,24.30
2018-07-28T20:21:23.524Z,24.20
2018-07-28T20:23:53.530Z,24.10
2018-07-28T20:28:53.301Z,23.90
2018-07-28T20:31:23.410Z,23.80
2018-07-28T20:33:53.466Z,23.70
2018-07-28T20:36:23.439Z,23.70
2018-07-28T20:38:53.481Z,23.60
2018-07-28T20:41:23.595Z,23.50
2018-07-28T20:43:53.613Z,23.50
2018-07-28T20:46:23.624Z,23.40
2018-07-28T20:48:54.119Z,23.30
2018-07-28T20:51:24.231Z,23.20
2018-07-28T20:53:54.268Z,23.20
2018-07-28T20:56:25.200Z,23.20
2018-07-28T20:58:55.290Z,23.20
2018-07-28T21:03:54.996Z,23.30
2018-07-28T21:06:24.965Z,23.30
2018-07-28T21:08:55.102Z,23.30
2018-07-28T21:11:25.100Z,23.30
2018-07-28T21:13:55.130Z,23.30
2018-07-28T21:16:26.184Z,23.30
2018-07-28T21:18:56.217Z,23.30
2018-07-28T21:21:26.238Z,23.20
2018-07-28T21:23:56.272Z,23.00
2018-07-28T21:26:26.204Z,22.90
2018-07-28T21:28:56.298Z,22.80
2018-07-28T21:31:26.390Z,22.90
2018-07-28T21:33:56.395Z,22.90
2018-07-28T21:38:56.030Z,22.80
2018-07-28T21:41:26.549Z,22.70
2018-07-28T21:43:56.634Z,22.70
2018-07-28T21:46:26.606Z,22.80
2018-07-28T21:48:56.653Z,22.90
2018-07-28T21:51:26.812Z,22.90
2018-07-28T21:53:56.788Z,22.90
2018-07-28T21:56:26.863Z,22.90
2018-07-28T22:01:26.895Z,22.80
2018-07-28T22:03:56.904Z,22.80
2018-07-28T22:06:26.946Z,22.80
2018-07-28T22:08:57.098Z,22.70
2018-07-28T22:11:27.138Z,22.80
2018-07-28T22:13:57.143Z,22.80
2018-07-28T22:16:27.143Z,22.80
2018-07-28T22:18:57.173Z,22.80
2018-07-28T22:21:27.203Z,22.90
2018-07-28T22:26:27.000Z,22.90
2018-07-28T22:28:57.033Z,22.90
2018-07-28T22:33:56.683Z,23.00
2018-07-28T22:36:26.698Z,23.10
2018-07-28T22:38:56.982Z,23.10
2018-07-28T22:41:26.937Z,23.10
2018-07-28T22:43:56.872Z,23.20
2018-07-28T22:46:26.945Z,23.20
2018-07-28T22:51:26.609Z,23.20
2018-07-28T22:53:56.550Z,23.20
2018-07-28T22:56:26.500Z,23.20
2018-07-28T23:01:26.237Z,23.20
2018-07-28T23:03:56.291Z,23.20
2018-07-28T23:06:26.376Z,23.20
2018-07-28T23:08:56.385Z,23.10
2018-07-28T23:11:26.368Z,23.00
2018-07-28T23:16:26.128Z,23.00
2018-07-28T23:18:56.242Z,22.90
2018-07-28T23:21:26.248Z,22.90
2018-07-28T23:26:25.985Z,22.70
2018-07-28T23:28:56.135Z,22.60
2018-07-28T23:31:26.102Z,22.50
2018-07-28T23:33:56.110Z,22.40
2018-07-28T23:36:26.099Z,22.30
2018-07-28T23:38:56.118Z,22.40
2018-07-28T23:41:26.216Z,22.30
2018-07-28T23:43:56.269Z,22.20
2018-07-28T23:46:26.268Z,22.10
2018-07-28T23:48:56.341Z,22.10
2018-07-28T23:53:55.953Z,22.00
2018-07-28T23:56:25.916Z,22.00
2018-07-28T23:58:55.901Z,22.00
